sensor_id;sensor_type;location;lat;lon;timestamp;P1;durP1;ratioP1;P2;durP2;ratioP2
74894;SDS011;63447;49.446;8.666;2023-03-03T00:03:41;21.13;;;10.40;;
74894;SDS011;63447;49.446;8.666;2023-03-03T00:08:34;22.75;;;9.43;;
74894;SDS011;63447;49.446;8.666;2023-03-03T00:13:25;19.23;;;9.13;;
74894;SDS011;63447;49.446;8.666;2023-03-03T00:15:52;23.13;;;9.88;;
74894;SDS011;63447;49.446;8.666;2023-03-03T00:18:32;21.48;;;11.35;;
74894;SDS011;63447;49.446;8.666;2023-03-03T00:21:03;31.48;;;11.45;;
74894;SDS011;63447;49.446;8.666;2023-03-03T00:23:43;20.95;;;11.07;;
74894;SDS011;63447;49.446;8.666;2023-03-03T00:26:20;23.80;;;10.90;;
74894;SDS011;63447;49.446;8.666;2023-03-03T00:28:50;22.10;;;10.98;;
74894;SDS011;63447;49.446;8.666;2023-03-03T00:31:28;23.13;;;12.70;;
74894;SDS011;63447;49.446;8.666;2023-03-03T00:33:59;24.63;;;12.90;;
74894;SDS011;63447;49.446;8.666;2023-03-03T00:36:57;22.90;;;12.13;;
74894;SDS011;63447;49.446;8.666;2023-03-03T00:39:32;22.05;;;11.57;;
74894;SDS011;63447;49.446;8.666;2023-03-03T00:42:00;25.52;;;12.32;;
74894;SDS011;63447;49.446;8.666;2023-03-03T00:44:34;29.10;;;13.63;;
74894;SDS011;63447;49.446;8.666;2023-03-03T00:49:53;24.35;;;11.52;;
74894;SDS011;63447;49.446;8.666;2023-03-03T00:52:40;23.02;;;12.18;;
74894;SDS011;63447;49.446;8.666;2023-03-03T00:55:10;25.02;;;12.02;;
74894;SDS011;63447;49.446;8.666;2023-03-03T01:00:01;22.00;;;10.57;;
74894;SDS011;63447;49.446;8.666;2023-03-03T01:04:52;23.97;;;10.97;;
74894;SDS011;63447;49.446;8.666;2023-03-03T01:07:20;27.25;;;12.00;;
74894;SDS011;63447;49.446;8.666;2023-03-03T01:12:10;28.17;;;11.73;;
74894;SDS011;63447;49.446;8.666;2023-03-03T01:14:36;25.13;;;11.18;;
74894;SDS011;63447;49.446;8.666;2023-03-03T01:17:03;23.77;;;11.68;;
74894;SDS011;63447;49.446;8.666;2023-03-03T01:19:28;24.92;;;11.52;;
74894;SDS011;63447;49.446;8.666;2023-03-03T01:24:21;22.17;;;10.27;;
74894;SDS011;63447;49.446;8.666;2023-03-03T01:26:46;27.50;;;11.88;;
74894;SDS011;63447;49.446;8.666;2023-03-03T01:31:37;21.27;;;9.57;;
74894;SDS011;63447;49.446;8.666;2023-03-03T01:34:02;24.63;;;10.82;;
74894;SDS011;63447;49.446;8.666;2023-03-03T01:38:54;23.70;;;10.95;;
74894;SDS011;63447;49.446;8.666;2023-03-03T01:43:46;21.83;;;10.43;;
74894;SDS011;63447;49.446;8.666;2023-03-03T01:48:47;23.75;;;12.05;;
74894;SDS011;63447;49.446;8.666;2023-03-03T01:51:20;23.35;;;11.18;;
74894;SDS011;63447;49.446;8.666;2023-03-03T01:53:50;25.17;;;11.43;;
74894;SDS011;63447;49.446;8.666;2023-03-03T01:56:19;24.60;;;11.15;;
74894;SDS011;63447;49.446;8.666;2023-03-03T01:59:04;27.80;;;12.23;;
74894;SDS011;63447;49.446;8.666;2023-03-03T02:01:35;27.88;;;12.77;;
74894;SDS011;63447;49.446;8.666;2023-03-03T02:06:32;27.92;;;12.90;;
74894;SDS011;63447;49.446;8.666;2023-03-03T02:11:28;28.67;;;12.45;;
74894;SDS011;63447;49.446;8.666;2023-03-03T02:13:56;29.05;;;13.75;;
74894;SDS011;63447;49.446;8.666;2023-03-03T02:18:51;27.38;;;12.23;;
74894;SDS011;63447;49.446;8.666;2023-03-03T02:21:20;24.52;;;12.35;;
74894;SDS011;63447;49.446;8.666;2023-03-03T02:26:23;27.45;;;13.32;;
74894;SDS011;63447;49.446;8.666;2023-03-03T02:28:54;26.25;;;12.50;;
74894;SDS011;63447;49.446;8.666;2023-03-03T02:31:22;27.30;;;13.38;;
74894;SDS011;63447;49.446;8.666;2023-03-03T02:33:52;26.77;;;13.20;;
74894;SDS011;63447;49.446;8.666;2023-03-03T02:36:21;26.17;;;13.35;;
74894;SDS011;63447;49.446;8.666;2023-03-03T02:46:34;27.83;;;12.63;;
74894;SDS011;63447;49.446;8.666;2023-03-03T02:49:06;27.20;;;12.00;;
74894;SDS011;63447;49.446;8.666;2023-03-03T02:51:34;28.27;;;12.95;;
74894;SDS011;63447;49.446;8.666;2023-03-03T02:54:00;23.73;;;10.70;;
74894;SDS011;63447;49.446;8.666;2023-03-03T02:56:26;24.60;;;11.90;;
74894;SDS011;63447;49.446;8.666;2023-03-03T02:58:54;24.08;;;11.57;;
74894;SDS011;63447;49.446;8.666;2023-03-03T03:01:20;22.48;;;11.45;;
74894;SDS011;63447;49.446;8.666;2023-03-03T03:03:45;23.55;;;12.10;;
74894;SDS011;63447;49.446;8.666;2023-03-03T03:06:13;26.17;;;11.23;;
74894;SDS011;63447;49.446;8.666;2023-03-03T03:08:38;23.65;;;11.48;;
74894;SDS011;63447;49.446;8.666;2023-03-03T03:11:06;21.55;;;10.80;;
74894;SDS011;63447;49.446;8.666;2023-03-03T03:15:57;23.10;;;11.23;;
74894;SDS011;63447;49.446;8.666;2023-03-03T03:18:26;21.85;;;10.85;;
74894;SDS011;63447;49.446;8.666;2023-03-03T03:20:52;24.73;;;10.45;;
74894;SDS011;63447;49.446;8.666;2023-03-03T03:25:48;25.63;;;11.93;;
74894;SDS011;63447;49.446;8.666;2023-03-03T03:28:18;23.92;;;11.25;;
74894;SDS011;63447;49.446;8.666;2023-03-03T03:30:43;22.77;;;10.97;;
74894;SDS011;63447;49.446;8.666;2023-03-03T03:33:09;26.05;;;11.20;;
74894;SDS011;63447;49.446;8.666;2023-03-03T03:35:39;22.02;;;10.15;;
74894;SDS011;63447;49.446;8.666;2023-03-03T03:38:09;20.50;;;9.93;;
74894;SDS011;63447;49.446;8.666;2023-03-03T03:40:36;22.35;;;9.88;;
74894;SDS011;63447;49.446;8.666;2023-03-03T03:45:31;22.50;;;10.32;;
74894;SDS011;63447;49.446;8.666;2023-03-03T03:48:01;23.42;;;11.40;;
74894;SDS011;63447;49.446;8.666;2023-03-03T03:50:27;23.38;;;10.60;;
74894;SDS011;63447;49.446;8.666;2023-03-03T03:52:55;21.10;;;10.52;;
74894;SDS011;63447;49.446;8.666;2023-03-03T03:55:22;21.30;;;10.25;;
74894;SDS011;63447;49.446;8.666;2023-03-03T03:57:48;22.43;;;10.33;;
74894;SDS011;63447;49.446;8.666;2023-03-03T04:00:13;19.57;;;9.97;;
74894;SDS011;63447;49.446;8.666;2023-03-03T04:02:41;21.83;;;10.63;;
74894;SDS011;63447;49.446;8.666;2023-03-03T04:05:09;21.30;;;9.85;;
74894;SDS011;63447;49.446;8.666;2023-03-03T04:07:34;21.42;;;11.30;;
74894;SDS011;63447;49.446;8.666;2023-03-03T04:09:59;21.67;;;10.13;;
74894;SDS011;63447;49.446;8.666;2023-03-03T04:12:25;22.60;;;11.03;;
74894;SDS011;63447;49.446;8.666;2023-03-03T04:14:59;21.98;;;10.05;;
74894;SDS011;63447;49.446;8.666;2023-03-03T04:17:27;22.33;;;11.20;;
74894;SDS011;63447;49.446;8.666;2023-03-03T04:19:55;21.70;;;10.95;;
74894;SDS011;63447;49.446;8.666;2023-03-03T04:22:23;21.57;;;10.50;;
74894;SDS011;63447;49.446;8.666;2023-03-03T04:24:50;22.95;;;10.75;;
74894;SDS011;63447;49.446;8.666;2023-03-03T04:27:20;23.45;;;11.40;;
74894;SDS011;63447;49.446;8.666;2023-03-03T04:29:50;21.95;;;10.90;;
74894;SDS011;63447;49.446;8.666;2023-03-03T04:32:16;23.23;;;12.10;;
74894;SDS011;63447;49.446;8.666;2023-03-03T04:34:42;21.83;;;10.80;;
74894;SDS011;63447;49.446;8.666;2023-03-03T04:37:10;21.60;;;10.43;;
74894;SDS011;63447;49.446;8.666;2023-03-03T04:39:36;22.80;;;11.82;;
74894;SDS011;63447;49.446;8.666;2023-03-03T04:42:03;23.02;;;11.15;;
74894;SDS011;63447;49.446;8.666;2023-03-03T04:44:29;22.83;;;11.00;;
74894;SDS011;63447;49.446;8.666;2023-03-03T04:46:54;24.50;;;11.53;;
74894;SDS011;63447;49.446;8.666;2023-03-03T04:49:21;24.92;;;10.90;;
74894;SDS011;63447;49.446;8.666;2023-03-03T04:51:49;26.13;;;12.07;;
74894;SDS011;63447;49.446;8.666;2023-03-03T04:54:16;21.50;;;10.75;;
74894;SDS011;63447;49.446;8.666;2023-03-03T04:56:42;23.57;;;10.37;;
74894;SDS011;63447;49.446;8.666;2023-03-03T04:59:07;25.55;;;10.90;;
74894;SDS011;63447;49.446;8.666;2023-03-03T05:01:33;25.55;;;11.55;;
74894;SDS011;63447;49.446;8.666;2023-03-03T05:03:58;23.53;;;11.13;;
74894;SDS011;63447;49.446;8.666;2023-03-03T05:06:25;21.55;;;10.88;;
74894;SDS011;63447;49.446;8.666;2023-03-03T05:08:53;21.73;;;10.85;;
74894;SDS011;63447;49.446;8.666;2023-03-03T05:11:21;21.50;;;10.85;;
74894;SDS011;63447;49.446;8.666;2023-03-03T05:13:48;20.25;;;10.57;;
74894;SDS011;63447;49.446;8.666;2023-03-03T05:16:14;23.90;;;10.43;;
74894;SDS011;63447;49.446;8.666;2023-03-03T05:18:43;22.90;;;10.85;;
74894;SDS011;63447;49.446;8.666;2023-03-03T05:21:10;23.38;;;11.48;;
74894;SDS011;63447;49.446;8.666;2023-03-03T05:23:38;23.55;;;11.57;;
74894;SDS011;63447;49.446;8.666;2023-03-03T05:26:03;20.25;;;10.30;;
74894;SDS011;63447;49.446;8.666;2023-03-03T05:28:31;20.85;;;11.02;;
74894;SDS011;63447;49.446;8.666;2023-03-03T05:30:57;23.13;;;11.25;;
74894;SDS011;63447;49.446;8.666;2023-03-03T05:33:22;19.53;;;10.77;;
74894;SDS011;63447;49.446;8.666;2023-03-03T05:35:52;24.00;;;10.25;;
74894;SDS011;63447;49.446;8.666;2023-03-03T05:38:22;22.80;;;10.60;;
74894;SDS011;63447;49.446;8.666;2023-03-03T05:40:52;23.67;;;11.25;;
74894;SDS011;63447;49.446;8.666;2023-03-03T05:43:18;21.23;;;10.50;;
74894;SDS011;63447;49.446;8.666;2023-03-03T05:45:44;25.17;;;11.80;;
74894;SDS011;63447;49.446;8.666;2023-03-03T05:48:09;27.00;;;11.90;;
74894;SDS011;63447;49.446;8.666;2023-03-03T05:50:39;25.10;;;11.95;;
74894;SDS011;63447;49.446;8.666;2023-03-03T05:53:05;24.48;;;11.25;;
74894;SDS011;63447;49.446;8.666;2023-03-03T05:55:32;24.48;;;10.93;;
74894;SDS011;63447;49.446;8.666;2023-03-03T05:57:58;21.13;;;10.15;;
74894;SDS011;63447;49.446;8.666;2023-03-03T06:00:23;24.87;;;11.37;;
74894;SDS011;63447;49.446;8.666;2023-03-03T06:02:48;23.00;;;11.18;;
74894;SDS011;63447;49.446;8.666;2023-03-03T06:05:14;22.07;;;10.70;;
74894;SDS011;63447;49.446;8.666;2023-03-03T06:07:41;24.92;;;10.85;;
74894;SDS011;63447;49.446;8.666;2023-03-03T06:10:07;23.95;;;11.52;;
74894;SDS011;63447;49.446;8.666;2023-03-03T06:12:33;24.27;;;10.90;;
74894;SDS011;63447;49.446;8.666;2023-03-03T06:14:58;21.30;;;10.55;;
74894;SDS011;63447;49.446;8.666;2023-03-03T06:17:25;23.85;;;11.55;;
74894;SDS011;63447;49.446;8.666;2023-03-03T06:19:53;22.17;;;10.70;;
74894;SDS011;63447;49.446;8.666;2023-03-03T06:22:21;23.63;;;12.10;;
74894;SDS011;63447;49.446;8.666;2023-03-03T06:24:46;26.00;;;11.40;;
74894;SDS011;63447;49.446;8.666;2023-03-03T06:27:13;25.10;;;11.33;;
74894;SDS011;63447;49.446;8.666;2023-03-03T06:29:43;22.70;;;11.30;;
74894;SDS011;63447;49.446;8.666;2023-03-03T06:32:09;23.50;;;12.00;;
74894;SDS011;63447;49.446;8.666;2023-03-03T06:34:36;24.17;;;12.80;;
74894;SDS011;63447;49.446;8.666;2023-03-03T06:37:04;26.60;;;12.82;;
74894;SDS011;63447;49.446;8.666;2023-03-03T06:39:32;25.75;;;12.38;;
74894;SDS011;63447;49.446;8.666;2023-03-03T06:42:00;28.45;;;12.60;;
74894;SDS011;63447;49.446;8.666;2023-03-03T06:44:31;29.70;;;13.73;;
74894;SDS011;63447;49.446;8.666;2023-03-03T06:49:22;25.20;;;12.73;;
74894;SDS011;63447;49.446;8.666;2023-03-03T06:51:47;27.02;;;13.38;;
74894;SDS011;63447;49.446;8.666;2023-03-03T06:54:20;30.10;;;13.48;;
74894;SDS011;63447;49.446;8.666;2023-03-03T06:57:00;24.90;;;12.68;;
74894;SDS011;63447;49.446;8.666;2023-03-03T06:59:36;29.10;;;12.85;;
74894;SDS011;63447;49.446;8.666;2023-03-03T07:02:03;28.85;;;13.82;;
74894;SDS011;63447;49.446;8.666;2023-03-03T07:04:42;29.23;;;12.90;;
74894;SDS011;63447;49.446;8.666;2023-03-03T07:09:48;24.13;;;11.68;;
74894;SDS011;63447;49.446;8.666;2023-03-03T07:12:18;26.35;;;12.73;;
74894;SDS011;63447;49.446;8.666;2023-03-03T07:14:47;24.83;;;12.48;;
74894;SDS011;63447;49.446;8.666;2023-03-03T07:17:20;26.98;;;13.70;;
74894;SDS011;63447;49.446;8.666;2023-03-03T07:19:47;26.13;;;13.10;;
74894;SDS011;63447;49.446;8.666;2023-03-03T07:24:39;28.97;;;13.57;;
74894;SDS011;63447;49.446;8.666;2023-03-03T07:27:10;28.10;;;14.32;;
74894;SDS011;63447;49.446;8.666;2023-03-03T07:30:15;24.85;;;12.90;;
74894;SDS011;63447;49.446;8.666;2023-03-03T07:32:46;29.35;;;12.82;;
74894;SDS011;63447;49.446;8.666;2023-03-03T07:38:00;27.23;;;13.48;;
74894;SDS011;63447;49.446;8.666;2023-03-03T07:45:48;30.70;;;14.13;;
74894;SDS011;63447;49.446;8.666;2023-03-03T07:51:00;25.00;;;12.80;;
74894;SDS011;63447;49.446;8.666;2023-03-03T07:53:33;29.17;;;14.10;;
74894;SDS011;63447;49.446;8.666;2023-03-03T07:56:02;32.38;;;15.27;;
74894;SDS011;63447;49.446;8.666;2023-03-03T07:58:39;29.17;;;13.73;;
74894;SDS011;63447;49.446;8.666;2023-03-03T08:03:54;30.63;;;15.13;;
74894;SDS011;63447;49.446;8.666;2023-03-03T08:06:37;28.13;;;14.07;;
74894;SDS011;63447;49.446;8.666;2023-03-03T08:11:33;26.10;;;13.10;;
74894;SDS011;63447;49.446;8.666;2023-03-03T08:14:01;29.88;;;14.25;;
74894;SDS011;63447;49.446;8.666;2023-03-03T08:16:38;28.15;;;13.23;;
74894;SDS011;63447;49.446;8.666;2023-03-03T08:19:04;26.80;;;14.23;;
74894;SDS011;63447;49.446;8.666;2023-03-03T08:21:30;27.08;;;13.95;;
74894;SDS011;63447;49.446;8.666;2023-03-03T08:23:59;28.20;;;13.45;;
74894;SDS011;63447;49.446;8.666;2023-03-03T08:28:50;26.75;;;13.73;;
74894;SDS011;63447;49.446;8.666;2023-03-03T08:31:16;25.35;;;13.38;;
74894;SDS011;63447;49.446;8.666;2023-03-03T08:33:43;28.95;;;14.02;;
74894;SDS011;63447;49.446;8.666;2023-03-03T08:36:11;26.77;;;13.95;;
74894;SDS011;63447;49.446;8.666;2023-03-03T08:38:41;26.92;;;13.18;;
74894;SDS011;63447;49.446;8.666;2023-03-03T08:43:32;29.70;;;13.20;;
74894;SDS011;63447;49.446;8.666;2023-03-03T08:48:26;23.40;;;12.63;;
74894;SDS011;63447;49.446;8.666;2023-03-03T08:50:54;26.40;;;12.80;;
74894;SDS011;63447;49.446;8.666;2023-03-03T08:53:22;26.80;;;13.95;;
74894;SDS011;63447;49.446;8.666;2023-03-03T08:55:50;27.05;;;14.45;;
74894;SDS011;63447;49.446;8.666;2023-03-03T08:58:16;31.77;;;14.27;;
74894;SDS011;63447;49.446;8.666;2023-03-03T09:00:45;27.52;;;14.48;;
74894;SDS011;63447;49.446;8.666;2023-03-03T09:03:13;26.30;;;13.90;;
74894;SDS011;63447;49.446;8.666;2023-03-03T09:08:05;26.13;;;13.57;;
74894;SDS011;63447;49.446;8.666;2023-03-03T09:10:33;25.58;;;14.25;;
74894;SDS011;63447;49.446;8.666;2023-03-03T09:13:02;26.58;;;13.50;;
74894;SDS011;63447;49.446;8.666;2023-03-03T09:15:33;24.15;;;12.93;;
74894;SDS011;63447;49.446;8.666;2023-03-03T09:23:57;25.17;;;13.00;;
74894;SDS011;63447;49.446;8.666;2023-03-03T09:26:45;24.70;;;13.75;;
74894;SDS011;63447;49.446;8.666;2023-03-03T09:31:43;26.42;;;14.48;;
74894;SDS011;63447;49.446;8.666;2023-03-03T09:37:38;29.33;;;15.75;;
74894;SDS011;63447;49.446;8.666;2023-03-03T09:40:00;28.85;;;15.60;;
74894;SDS011;63447;49.446;8.666;2023-03-03T09:45:53;29.13;;;16.05;;
74894;SDS011;63447;49.446;8.666;2023-03-03T09:57:19;28.38;;;15.48;;
74894;SDS011;63447;49.446;8.666;2023-03-03T10:00:07;24.63;;;15.00;;
74894;SDS011;63447;49.446;8.666;2023-03-03T10:21:52;29.58;;;16.40;;
74894;SDS011;63447;49.446;8.666;2023-03-03T10:24:30;28.33;;;14.95;;
74894;SDS011;63447;49.446;8.666;2023-03-03T10:40:46;32.08;;;16.90;;
74894;SDS011;63447;49.446;8.666;2023-03-03T10:43:30;32.03;;;16.55;;
74894;SDS011;63447;49.446;8.666;2023-03-03T10:57:12;32.25;;;17.48;;
74894;SDS011;63447;49.446;8.666;2023-03-03T11:03:08;31.65;;;17.50;;
74894;SDS011;63447;49.446;8.666;2023-03-03T11:05:41;30.77;;;17.10;;
74894;SDS011;63447;49.446;8.666;2023-03-03T11:08:16;30.95;;;17.85;;
74894;SDS011;63447;49.446;8.666;2023-03-03T11:35:35;31.60;;;17.27;;
74894;SDS011;63447;49.446;8.666;2023-03-03T11:41:02;30.20;;;17.73;;
74894;SDS011;63447;49.446;8.666;2023-03-03T11:46:10;35.35;;;18.17;;
74894;SDS011;63447;49.446;8.666;2023-03-03T11:48:38;29.70;;;17.48;;
74894;SDS011;63447;49.446;8.666;2023-03-03T11:51:14;31.45;;;17.08;;
74894;SDS011;63447;49.446;8.666;2023-03-03T11:53:52;32.20;;;17.73;;
74894;SDS011;63447;49.446;8.666;2023-03-03T12:04:02;33.42;;;18.70;;
74894;SDS011;63447;49.446;8.666;2023-03-03T12:09:54;33.60;;;18.20;;
74894;SDS011;63447;49.446;8.666;2023-03-03T12:12:32;32.35;;;17.92;;
74894;SDS011;63447;49.446;8.666;2023-03-03T12:17:37;32.45;;;17.92;;
74894;SDS011;63447;49.446;8.666;2023-03-03T12:25:04;30.88;;;17.50;;
74894;SDS011;63447;49.446;8.666;2023-03-03T12:27:57;31.35;;;18.17;;
74894;SDS011;63447;49.446;8.666;2023-03-03T12:30:39;31.30;;;18.70;;
74894;SDS011;63447;49.446;8.666;2023-03-03T12:38:42;28.63;;;17.63;;
74894;SDS011;63447;49.446;8.666;2023-03-03T12:46:30;29.20;;;17.40;;
74894;SDS011;63447;49.446;8.666;2023-03-03T12:51:27;28.20;;;17.67;;
74894;SDS011;63447;49.446;8.666;2023-03-03T12:54:13;28.15;;;17.10;;
74894;SDS011;63447;49.446;8.666;2023-03-03T12:56:48;29.60;;;17.23;;
74894;SDS011;63447;49.446;8.666;2023-03-03T12:59:30;27.83;;;17.65;;
74894;SDS011;63447;49.446;8.666;2023-03-03T13:05:15;28.80;;;18.45;;
74894;SDS011;63447;49.446;8.666;2023-03-03T13:07:48;29.83;;;17.77;;
74894;SDS011;63447;49.446;8.666;2023-03-03T13:17:57;28.83;;;17.83;;
74894;SDS011;63447;49.446;8.666;2023-03-03T13:25:52;27.02;;;17.75;;
74894;SDS011;63447;49.446;8.666;2023-03-03T13:28:39;28.45;;;17.75;;
74894;SDS011;63447;49.446;8.666;2023-03-03T13:31:17;27.13;;;17.95;;
74894;SDS011;63447;49.446;8.666;2023-03-03T13:33:54;28.42;;;18.20;;
74894;SDS011;63447;49.446;8.666;2023-03-03T13:36:25;29.35;;;18.65;;
74894;SDS011;63447;49.446;8.666;2023-03-03T13:38:59;26.58;;;17.83;;
74894;SDS011;63447;49.446;8.666;2023-03-03T13:41:34;30.40;;;17.50;;
74894;SDS011;63447;49.446;8.666;2023-03-03T13:52:20;28.10;;;17.90;;
74894;SDS011;63447;49.446;8.666;2023-03-03T14:05:55;27.45;;;17.52;;
74894;SDS011;63447;49.446;8.666;2023-03-03T14:11:15;27.10;;;17.77;;
74894;SDS011;63447;49.446;8.666;2023-03-03T14:19:30;26.88;;;17.30;;
74894;SDS011;63447;49.446;8.666;2023-03-03T14:24:58;26.67;;;16.08;;
74894;SDS011;63447;49.446;8.666;2023-03-03T14:28:12;26.58;;;17.20;;
74894;SDS011;63447;49.446;8.666;2023-03-03T14:35:37;28.60;;;17.00;;
74894;SDS011;63447;49.446;8.666;2023-03-03T14:38:13;24.50;;;16.40;;
74894;SDS011;63447;49.446;8.666;2023-03-03T14:40:48;27.65;;;17.17;;
74894;SDS011;63447;49.446;8.666;2023-03-03T14:48:51;23.48;;;15.10;;
74894;SDS011;63447;49.446;8.666;2023-03-03T14:53:57;24.65;;;15.48;;
74894;SDS011;63447;49.446;8.666;2023-03-03T14:56:32;27.00;;;15.63;;
74894;SDS011;63447;49.446;8.666;2023-03-03T15:01:57;26.45;;;16.05;;
74894;SDS011;63447;49.446;8.666;2023-03-03T15:04:37;26.27;;;15.88;;
74894;SDS011;63447;49.446;8.666;2023-03-03T15:07:14;24.20;;;15.23;;
74894;SDS011;63447;49.446;8.666;2023-03-03T15:09:47;26.48;;;15.20;;
74894;SDS011;63447;49.446;8.666;2023-03-03T15:17:37;25.33;;;14.88;;
74894;SDS011;63447;49.446;8.666;2023-03-03T15:25:32;23.33;;;14.37;;
74894;SDS011;63447;49.446;8.666;2023-03-03T15:33:43;21.52;;;13.35;;
74894;SDS011;63447;49.446;8.666;2023-03-03T15:58:18;19.83;;;11.65;;
74894;SDS011;63447;49.446;8.666;2023-03-03T16:06:37;19.45;;;10.43;;
74894;SDS011;63447;49.446;8.666;2023-03-03T16:12:04;20.20;;;11.05;;
74894;SDS011;63447;49.446;8.666;2023-03-03T16:20:12;20.15;;;10.73;;
74894;SDS011;63447;49.446;8.666;2023-03-03T16:23:13;19.90;;;10.43;;
74894;SDS011;63447;49.446;8.666;2023-03-03T16:25:54;20.40;;;10.45;;
74894;SDS011;63447;49.446;8.666;2023-03-03T16:28:48;18.33;;;9.65;;
74894;SDS011;63447;49.446;8.666;2023-03-03T16:31:21;18.25;;;9.60;;
74894;SDS011;63447;49.446;8.666;2023-03-03T16:39:19;19.63;;;9.63;;
74894;SDS011;63447;49.446;8.666;2023-03-03T16:41:46;19.05;;;9.75;;
74894;SDS011;63447;49.446;8.666;2023-03-03T16:58:39;18.95;;;9.57;;
74894;SDS011;63447;49.446;8.666;2023-03-03T17:08:58;18.20;;;8.70;;
74894;SDS011;63447;49.446;8.666;2023-03-03T17:14:29;19.95;;;9.38;;
74894;SDS011;63447;49.446;8.666;2023-03-03T17:17:02;20.70;;;9.63;;
74894;SDS011;63447;49.446;8.666;2023-03-03T17:28:10;20.05;;;9.55;;
74894;SDS011;63447;49.446;8.666;2023-03-03T17:46:54;22.10;;;11.23;;
74894;SDS011;63447;49.446;8.666;2023-03-03T17:52:22;22.60;;;10.40;;
74894;SDS011;63447;49.446;8.666;2023-03-03T17:55:28;19.75;;;10.52;;
74894;SDS011;63447;49.446;8.666;2023-03-03T18:11:13;25.00;;;11.05;;
74894;SDS011;63447;49.446;8.666;2023-03-03T18:21:28;23.10;;;10.35;;
74894;SDS011;63447;49.446;8.666;2023-03-03T18:32:57;25.08;;;11.07;;
74894;SDS011;63447;49.446;8.666;2023-03-03T18:37:55;24.33;;;11.50;;
74894;SDS011;63447;49.446;8.666;2023-03-03T18:42:48;23.50;;;11.57;;
74894;SDS011;63447;49.446;8.666;2023-03-03T18:55:41;25.33;;;12.50;;
74894;SDS011;63447;49.446;8.666;2023-03-03T19:00:57;26.15;;;12.63;;
74894;SDS011;63447;49.446;8.666;2023-03-03T19:06:32;28.73;;;12.40;;
74894;SDS011;63447;49.446;8.666;2023-03-03T19:12:17;22.33;;;11.07;;
74894;SDS011;63447;49.446;8.666;2023-03-03T19:14:46;25.10;;;11.65;;
74894;SDS011;63447;49.446;8.666;2023-03-03T19:22:46;36.50;;;16.10;;
74894;SDS011;63447;49.446;8.666;2023-03-03T19:27:48;29.10;;;13.27;;
74894;SDS011;63447;49.446;8.666;2023-03-03T19:47:24;19.40;;;9.00;;
74894;SDS011;63447;49.446;8.666;2023-03-03T20:17:57;18.55;;;8.38;;
74894;SDS011;63447;49.446;8.666;2023-03-03T20:29:02;20.35;;;8.73;;
74894;SDS011;63447;49.446;8.666;2023-03-03T20:37:21;17.48;;;8.73;;
74894;SDS011;63447;49.446;8.666;2023-03-03T20:50:24;16.40;;;8.15;;
74894;SDS011;63447;49.446;8.666;2023-03-03T21:01:19;18.58;;;7.70;;
74894;SDS011;63447;49.446;8.666;2023-03-03T21:04:15;16.08;;;7.68;;
74894;SDS011;63447;49.446;8.666;2023-03-03T21:06:51;16.42;;;7.82;;
74894;SDS011;63447;49.446;8.666;2023-03-03T21:09:53;16.27;;;7.82;;
74894;SDS011;63447;49.446;8.666;2023-03-03T21:12:28;17.48;;;7.47;;
74894;SDS011;63447;49.446;8.666;2023-03-03T21:14:58;17.92;;;7.95;;
74894;SDS011;63447;49.446;8.666;2023-03-03T21:17:28;15.05;;;7.40;;
74894;SDS011;63447;49.446;8.666;2023-03-03T21:20:16;19.98;;;8.77;;
74894;SDS011;63447;49.446;8.666;2023-03-03T21:22:49;19.02;;;8.20;;
74894;SDS011;63447;49.446;8.666;2023-03-03T21:28:40;18.58;;;8.60;;
74894;SDS011;63447;49.446;8.666;2023-03-03T21:33:45;21.90;;;8.75;;
74894;SDS011;63447;49.446;8.666;2023-03-03T21:36:17;20.85;;;8.75;;
74894;SDS011;63447;49.446;8.666;2023-03-03T21:38:49;18.17;;;8.23;;
74894;SDS011;63447;49.446;8.666;2023-03-03T21:41:19;18.95;;;8.52;;
74894;SDS011;63447;49.446;8.666;2023-03-03T21:43:48;19.10;;;9.80;;
74894;SDS011;63447;49.446;8.666;2023-03-03T21:46:22;18.17;;;8.55;;
74894;SDS011;63447;49.446;8.666;2023-03-03T21:48:49;17.40;;;8.77;;
74894;SDS011;63447;49.446;8.666;2023-03-03T21:51:16;18.80;;;8.60;;
74894;SDS011;63447;49.446;8.666;2023-03-03T21:53:45;17.52;;;8.48;;
74894;SDS011;63447;49.446;8.666;2023-03-03T21:58:38;18.83;;;7.93;;
74894;SDS011;63447;49.446;8.666;2023-03-03T22:01:05;17.83;;;8.30;;
74894;SDS011;63447;49.446;8.666;2023-03-03T22:03:33;19.35;;;8.57;;
74894;SDS011;63447;49.446;8.666;2023-03-03T22:08:25;20.40;;;8.98;;
74894;SDS011;63447;49.446;8.666;2023-03-03T22:10:51;18.20;;;8.80;;
74894;SDS011;63447;49.446;8.666;2023-03-03T22:13:20;20.73;;;8.43;;
74894;SDS011;63447;49.446;8.666;2023-03-03T22:15:49;19.15;;;8.90;;
74894;SDS011;63447;49.446;8.666;2023-03-03T22:20:42;19.27;;;9.15;;
74894;SDS011;63447;49.446;8.666;2023-03-03T22:23:13;19.10;;;9.10;;
74894;SDS011;63447;49.446;8.666;2023-03-03T22:25:39;22.75;;;9.93;;
74894;SDS011;63447;49.446;8.666;2023-03-03T22:28:07;18.03;;;8.80;;
74894;SDS011;63447;49.446;8.666;2023-03-03T22:30:32;19.80;;;9.60;;
74894;SDS011;63447;49.446;8.666;2023-03-03T22:33:02;22.10;;;9.35;;
74894;SDS011;63447;49.446;8.666;2023-03-03T22:37:55;21.60;;;9.57;;
74894;SDS011;63447;49.446;8.666;2023-03-03T22:40:21;20.90;;;9.48;;
74894;SDS011;63447;49.446;8.666;2023-03-03T22:42:49;20.25;;;9.30;;
74894;SDS011;63447;49.446;8.666;2023-03-03T22:45:17;21.75;;;9.13;;
74894;SDS011;63447;49.446;8.666;2023-03-03T22:47:42;20.75;;;8.70;;
74894;SDS011;63447;49.446;8.666;2023-03-03T22:50:08;19.47;;;8.47;;
74894;SDS011;63447;49.446;8.666;2023-03-03T22:52:36;20.33;;;7.75;;
74894;SDS011;63447;49.446;8.666;2023-03-03T22:55:04;18.50;;;8.75;;
74894;SDS011;63447;49.446;8.666;2023-03-03T22:59:55;17.33;;;7.73;;
74894;SDS011;63447;49.446;8.666;2023-03-03T23:02:20;14.73;;;7.40;;
74894;SDS011;63447;49.446;8.666;2023-03-03T23:04:48;17.27;;;7.32;;
74894;SDS011;63447;49.446;8.666;2023-03-03T23:07:15;15.52;;;6.63;;
74894;SDS011;63447;49.446;8.666;2023-03-03T23:09:40;16.67;;;8.07;;
74894;SDS011;63447;49.446;8.666;2023-03-03T23:12:06;16.57;;;7.60;;
74894;SDS011;63447;49.446;8.666;2023-03-03T23:14:34;20.40;;;7.82;;
74894;SDS011;63447;49.446;8.666;2023-03-03T23:16:59;16.25;;;6.80;;
74894;SDS011;63447;49.446;8.666;2023-03-03T23:19:24;15.53;;;6.90;;
74894;SDS011;63447;49.446;8.666;2023-03-03T23:21:49;17.93;;;8.67;;
74894;SDS011;63447;49.446;8.666;2023-03-03T23:24:15;19.23;;;7.83;;
74894;SDS011;63447;49.446;8.666;2023-03-03T23:26:40;17.10;;;7.63;;
74894;SDS011;63447;49.446;8.666;2023-03-03T23:29:05;17.93;;;7.50;;
74894;SDS011;63447;49.446;8.666;2023-03-03T23:31:31;17.17;;;7.40;;
74894;SDS011;63447;49.446;8.666;2023-03-03T23:33:58;18.38;;;7.90;;
74894;SDS011;63447;49.446;8.666;2023-03-03T23:36:24;15.57;;;6.77;;
74894;SDS011;63447;49.446;8.666;2023-03-03T23:38:49;14.27;;;6.30;;
74894;SDS011;63447;49.446;8.666;2023-03-03T23:41:14;15.77;;;6.87;;
74894;SDS011;63447;49.446;8.666;2023-03-03T23:43:40;16.83;;;7.40;;
74894;SDS011;63447;49.446;8.666;2023-03-03T23:46:05;14.90;;;6.87;;
74894;SDS011;63447;49.446;8.666;2023-03-03T23:48:33;14.33;;;6.43;;
74894;SDS011;63447;49.446;8.666;2023-03-03T23:51:00;16.75;;;6.45;;
74894;SDS011;63447;49.446;8.666;2023-03-03T23:53:28;18.02;;;7.30;;
74894;SDS011;63447;49.446;8.666;2023-03-03T23:55:53;14.80;;;7.07;;
74894;SDS011;63447;49.446;8.666;2023-03-03T23:58:21;16.40;;;6.95;;